Time;durP1;ratioP1;P1;durP2;ratioP2;P2;SDS_P1;SDS_P2;PMS_P1;PMS_P2;Temp;Humidity;BMP_temperature;BMP_pressure;BME280_temperature;BME280_humidity;BME280_pressure;Samples;Min_cycle;Max_cycle;Signal;HPM_P1;HPM_P2
2023/01/28 00:00:55;;;;;;;9.85;4.30;;;2.30;99.90;;;;;;5032302;28;20075;-55
2023/01/28 00:03:41;;;;;;;7.45;4.43;;;2.20;99.90;;;;;;5023384;28;20044;-58
2023/01/28 00:06:27;;;;;;;6.97;4.75;;;2.30;99.90;;;;;;5029665;28;20109;-49
2023/01/28 00:09:13;;;;;;;9.80;4.65;;;2.20;99.90;;;;;;5016791;28;20095;-52
2023/01/28 00:11:59;;;;;;;8.63;4.60;;;2.20;99.90;;;;;;5029984;28;20038;-51
2023/01/28 00:14:47;;;;;;;9.75;4.55;;;2.20;99.90;;;;;;5030305;28;20091;-51
2023/01/28 00:17:33;;;;;;;12.73;4.95;;;2.30;99.90;;;;;;5029314;28;20120;-49
2023/01/28 00:20:19;;;;;;;9.95;4.90;;;2.20;99.90;;;;;;5029333;28;20500;-48
2023/01/28 00:23:07;;;;;;;8.32;4.45;;;2.10;99.90;;;;;;5013035;28;20501;-53
2023/01/28 00:25:53;;;;;;;6.35;4.45;;;2.10;99.90;;;;;;5009825;28;20133;-53
2023/01/28 00:28:41;;;;;;;7.88;4.10;;;2.10;99.90;;;;;;5019558;28;20049;-52
2023/01/28 00:31:27;;;;;;;8.32;4.38;;;2.00;99.90;;;;;;5031547;28;20057;-54
2023/01/28 00:34:13;;;;;;;7.35;3.78;;;2.00;99.90;;;;;;5033727;28;20657;-56
2023/01/28 00:36:59;;;;;;;7.45;3.67;;;1.90;99.90;;;;;;5030145;28;20041;-51
2023/01/28 00:39:44;;;;;;;6.28;4.20;;;1.80;99.90;;;;;;5030575;28;20037;-50
2023/01/28 00:42:31;;;;;;;5.88;3.55;;;1.70;99.90;;;;;;5032335;28;20025;-48
2023/01/28 00:45:17;;;;;;;8.90;4.03;;;1.60;99.90;;;;;;5033360;28;20029;-52
2023/01/28 00:48:03;;;;;;;8.82;3.83;;;1.60;99.90;;;;;;5015971;28;20045;-52
2023/01/28 00:50:49;;;;;;;10.55;4.03;;;1.60;99.90;;;;;;5032090;28;20064;-52
2023/01/28 00:53:37;;;;;;;7.55;3.65;;;1.60;99.90;;;;;;5032408;28;20109;-52
2023/01/28 00:56:23;;;;;;;7.88;4.00;;;1.50;99.90;;;;;;5032266;28;20029;-49
2023/01/28 00:59:09;;;;;;;9.18;3.58;;;1.40;99.90;;;;;;5017284;28;20639;-47
2023/01/28 01:02:10;;;;;;;11.00;3.55;;;1.40;99.90;;;;;;5032605;28;20041;-48
2023/01/28 01:04:59;;;;;;;6.20;3.63;;;1.50;99.90;;;;;;5030634;28;20072;-49
2023/01/28 01:07:45;;;;;;;6.93;3.70;;;1.50;99.90;;;;;;5018056;28;20153;-53
2023/01/28 01:10:31;;;;;;;6.70;4.03;;;1.50;99.90;;;;;;5031546;28;20489;-48
2023/01/28 01:13:17;;;;;;;8.15;3.67;;;1.50;99.90;;;;;;5032538;28;20044;-52
2023/01/28 01:16:05;;;;;;;8.05;3.88;;;1.40;99.90;;;;;;5030355;28;20022;-51
2023/01/28 01:18:52;;;;;;;7.05;3.70;;;1.30;99.90;;;;;;5017130;28;20036;-54
2023/01/28 01:21:38;;;;;;;8.32;3.78;;;1.40;99.90;;;;;;5031807;28;20038;-55
2023/01/28 01:24:28;;;;;;;11.45;4.38;;;1.40;99.90;;;;;;5015846;28;20100;-54
2023/01/28 01:27:14;;;;;;;5.57;3.92;;;1.30;99.90;;;;;;5031776;28;20037;-54
2023/01/28 01:30:00;;;;;;;8.70;4.07;;;1.30;99.90;;;;;;5035906;28;20092;-50
2023/01/28 01:32:46;;;;;;;12.38;4.20;;;1.30;99.90;;;;;;5033128;28;20041;-55
2023/01/28 01:35:32;;;;;;;7.75;3.97;;;1.30;99.90;;;;;;5019228;28;20037;-53
2023/01/28 01:38:18;;;;;;;7.35;3.80;;;1.30;99.90;;;;;;5034292;28;20029;-49
2023/01/28 01:41:05;;;;;;;8.98;3.95;;;1.20;99.90;;;;;;5038317;28;20509;-56
2023/01/28 01:43:59;;;;;;;8.43;4.43;;;1.30;99.90;;;;;;5016763;28;20026;-47
2023/01/28 01:46:50;;;;;;;10.07;4.07;;;1.40;99.90;;;;;;5040774;28;20052;-54
2023/01/28 01:49:36;;;;;;;6.00;4.05;;;1.40;99.90;;;;;;5044748;28;20032;-49
2023/01/28 01:52:27;;;;;;;9.55;3.78;;;1.40;99.90;;;;;;5033954;28;20041;-55
2023/01/28 01:55:18;;;;;;;7.38;3.60;;;1.40;99.90;;;;;;5038640;28;20504;-58
2023/01/28 01:58:12;;;;;;;7.20;3.90;;;1.50;99.90;;;;;;5030784;28;20041;-54
2023/01/28 02:00:58;;;;;;;7.72;3.50;;;1.40;99.90;;;;;;5031758;28;20033;-51
2023/01/28 02:03:56;;;;;;;9.68;4.32;;;1.40;99.90;;;;;;5033441;28;20405;-55
2023/01/28 02:06:42;;;;;;;8.95;4.57;;;1.40;99.90;;;;;;5033800;28;20584;-52
2023/01/28 02:09:31;;;;;;;8.38;3.88;;;1.30;99.90;;;;;;5018846;28;20021;-56
2023/01/28 02:12:22;;;;;;;8.85;3.80;;;1.40;99.90;;;;;;5025574;28;20548;-55
2023/01/28 02:15:18;;;;;;;6.97;3.92;;;1.40;99.90;;;;;;5036897;28;20103;-48
2023/01/28 02:18:04;;;;;;;;;;;1.30;99.90;;;;;;5032846;28;20026;-57
2023/01/28 02:21:02;;;;;;;15.10;7.03;;;1.40;99.90;;;;;;5032501;28;19909;-54
2023/01/28 02:24:08;;;;;;;10.52;5.35;;;1.40;99.90;;;;;;5013330;28;20513;-49
2023/01/28 02:27:19;;;;;;;7.78;3.95;;;1.40;99.90;;;;;;5031394;28;20538;-52
2023/01/28 02:30:14;;;;;;;8.25;4.93;;;1.40;99.90;;;;;;5012279;28;20045;-49
2023/01/28 02:33:06;;;;;;;9.40;5.65;;;1.30;99.90;;;;;;5026579;28;20056;-52
2023/01/28 02:35:53;;;;;;;8.90;4.43;;;1.40;99.90;;;;;;5032612;28;20061;-54
2023/01/28 02:38:48;;;;;;;8.73;3.78;;;1.40;99.90;;;;;;5035294;28;20026;-55
2023/01/28 02:41:42;;;;;;;7.60;3.93;;;1.30;99.90;;;;;;5034797;28;20072;-50
2023/01/28 02:44:28;;;;;;;6.80;3.23;;;1.40;99.90;;;;;;5036484;28;20673;-51
2023/01/28 02:50:20;;;;;;;5.70;3.63;;;1.40;99.90;;;;;;5036918;28;20029;-51
2023/01/28 02:53:50;;;;;;;7.03;3.63;;;1.40;99.90;;;;;;5037718;28;20041;-47
2023/01/28 02:57:02;;;;;;;9.02;3.85;;;1.40;99.90;;;;;;4918258;29;20039;-48
2023/01/28 03:00:20;;;;;;;7.18;3.85;;;1.30;99.90;;;;;;4921562;29;20145;-54
2023/01/28 03:03:22;;;;;;;6.72;3.05;;;1.30;99.90;;;;;;4989951;28;20049;-55
2023/01/28 03:06:13;;;;;;;8.50;3.45;;;1.20;99.90;;;;;;5030850;28;20022;-57
2023/01/28 03:09:21;;;;;;;8.00;4.15;;;1.20;99.90;;;;;;5032761;28;20057;-52
2023/01/28 03:37:27;;;;;;;6.22;3.67;;;1.10;99.90;;;;;;5011203;28;20022;-52
2023/01/28 03:40:13;;;;;;;9.43;3.60;;;1.20;99.90;;;;;;5017018;28;20509;-52
2023/01/28 03:42:59;;;;;;;6.03;3.60;;;1.20;99.90;;;;;;5031315;28;20041;-50
2023/01/28 03:45:50;;;;;;;6.30;3.67;;;1.30;99.90;;;;;;5030497;28;20037;-47
2023/01/28 03:48:36;;;;;;;7.93;3.75;;;1.20;99.90;;;;;;5030830;28;20044;-50
2023/01/28 03:51:21;;;;;;;8.00;4.15;;;1.10;99.90;;;;;;5013211;28;20598;-47
2023/01/28 03:54:07;;;;;;;6.93;4.07;;;1.20;99.90;;;;;;5030714;28;20026;-49
2023/01/28 03:56:53;;;;;;;6.43;3.75;;;1.20;99.90;;;;;;5030451;28;20034;-46
2023/01/28 03:59:40;;;;;;;7.25;3.63;;;1.20;99.90;;;;;;5029861;28;20137;-47
2023/01/28 04:02:26;;;;;;;8.57;3.60;;;1.20;99.90;;;;;;5030649;28;20383;-47
2023/01/28 04:05:14;;;;;;;6.13;3.65;;;1.20;99.90;;;;;;5030811;28;20534;-49
2023/01/28 04:08:00;;;;;;;7.88;4.55;;;1.20;99.90;;;;;;5015721;28;20029;-50
2023/01/28 04:10:46;;;;;;;10.93;5.50;;;1.10;99.90;;;;;;5029695;28;20072;-49
2023/01/28 04:13:31;;;;;;;5.78;3.40;;;1.10;99.90;;;;;;5030589;28;20332;-47
2023/01/28 04:16:19;;;;;;;7.28;3.65;;;1.10;99.90;;;;;;5029493;28;20091;-48
2023/01/28 04:19:05;;;;;;;7.90;3.65;;;1.10;99.90;;;;;;5010076;28;20061;-52
2023/01/28 04:21:55;;;;;;;7.88;4.05;;;1.10;99.90;;;;;;4996059;28;20058;-52
2023/01/28 04:24:41;;;;;;;10.82;4.30;;;1.10;99.90;;;;;;5017538;28;20036;-56
2023/01/28 04:27:27;;;;;;;8.18;3.80;;;1.10;99.90;;;;;;5029298;28;20053;-52
2023/01/28 04:30:13;;;;;;;6.63;3.95;;;1.10;99.90;;;;;;5029812;28;20034;-47
2023/01/28 04:32:59;;;;;;;5.25;3.75;;;1.20;99.90;;;;;;5030282;28;20026;-47
2023/01/28 04:35:45;;;;;;;7.53;3.90;;;1.10;99.90;;;;;;5028453;28;20040;-51
2023/01/28 04:38:31;;;;;;;7.82;3.90;;;1.10;99.90;;;;;;5030972;28;20409;-46
2023/01/28 04:41:17;;;;;;;6.60;3.65;;;1.10;99.90;;;;;;5010734;28;20030;-49
2023/01/28 04:44:03;;;;;;;6.82;3.90;;;1.10;99.90;;;;;;5028369;28;20041;-50
2023/01/28 04:46:49;;;;;;;10.88;4.22;;;1.10;99.90;;;;;;5029330;28;20029;-47
2023/01/28 04:49:35;;;;;;;7.30;3.67;;;1.10;99.90;;;;;;5029337;28;20391;-50
2023/01/28 04:52:21;;;;;;;8.13;4.85;;;1.20;99.90;;;;;;5015832;28;20044;-52
2023/01/28 04:55:08;;;;;;;10.82;4.13;;;1.20;99.90;;;;;;5027819;28;20120;-49
2023/01/28 04:57:54;;;;;;;6.22;3.85;;;1.20;99.90;;;;;;5028623;28;20382;-55
2023/01/28 05:00:40;;;;;;;6.75;4.30;;;1.30;99.90;;;;;;5029202;28;20444;-52
2023/01/28 05:03:26;;;;;;;13.95;4.18;;;1.20;99.90;;;;;;5027158;28;20064;-48
2023/01/28 05:06:11;;;;;;;7.53;3.92;;;1.10;99.90;;;;;;5028350;28;20034;-48
2023/01/28 05:08:57;;;;;;;6.70;4.03;;;1.10;99.90;;;;;;5029997;28;20034;-50
2023/01/28 05:11:43;;;;;;;8.45;3.97;;;1.10;99.90;;;;;;5030335;28;20120;-48
2023/01/28 05:14:29;;;;;;;8.48;4.28;;;1.10;99.90;;;;;;5032861;28;20029;-49
2023/01/28 05:17:15;;;;;;;7.55;3.95;;;1.10;99.90;;;;;;5019076;28;20030;-54
2023/01/28 05:20:02;;;;;;;6.90;4.18;;;1.10;99.90;;;;;;5034491;28;20025;-55
2023/01/28 05:22:48;;;;;;;6.82;3.83;;;1.00;99.90;;;;;;5033236;28;20121;-56
2023/01/28 05:25:35;;;;;;;9.15;4.32;;;1.00;99.90;;;;;;5030350;28;20021;-48
2023/01/28 05:28:21;;;;;;;8.10;4.00;;;1.10;99.90;;;;;;5032258;28;20513;-49
2023/01/28 05:31:07;;;;;;;6.53;4.10;;;1.00;99.90;;;;;;5032322;28;20036;-51
2023/01/28 05:33:52;;;;;;;5.22;3.50;;;1.10;99.90;;;;;;5032215;28;20030;-53
2023/01/28 05:36:40;;;;;;;5.95;3.80;;;1.10;99.90;;;;;;5032012;28;20045;-47
2023/01/28 05:39:25;;;;;;;5.13;3.63;;;1.10;99.90;;;;;;5032195;28;20041;-53
2023/01/28 05:42:11;;;;;;;5.68;4.00;;;1.10;99.90;;;;;;5033170;28;20180;-50
2023/01/28 05:44:57;;;;;;;8.15;3.88;;;1.10;99.90;;;;;;5031359;28;20145;-53
2023/01/28 05:47:43;;;;;;;6.70;3.95;;;1.10;99.90;;;;;;5031209;28;20087;-50
2023/01/28 05:50:29;;;;;;;6.63;3.67;;;1.10;99.90;;;;;;5031867;28;20017;-53
2023/01/28 05:53:15;;;;;;;5.82;3.47;;;1.00;99.90;;;;;;5025149;28;20506;-50
2023/01/28 05:56:01;;;;;;;11.55;4.05;;;1.00;99.90;;;;;;5030713;28;20458;-49
2023/01/28 05:58:47;;;;;;;7.40;3.95;;;1.10;99.90;;;;;;5031052;28;20037;-51
2023/01/28 06:01:33;;;;;;;6.90;3.88;;;0.90;99.90;;;;;;5032138;28;21498;-52
2023/01/28 06:04:19;;;;;;;7.05;4.30;;;1.00;99.90;;;;;;5031705;28;20032;-53
2023/01/28 06:07:05;;;;;;;15.45;6.88;;;1.00;99.90;;;;;;5030899;28;20502;-54
2023/01/28 06:09:51;;;;;;;8.60;5.00;;;1.10;99.90;;;;;;5032030;28;20089;-52
2023/01/28 06:12:36;;;;;;;6.65;3.85;;;1.10;99.90;;;;;;5016736;28;20044;-51
2023/01/28 06:15:22;;;;;;;6.95;3.70;;;1.10;99.90;;;;;;5031205;28;20033;-53
2023/01/28 06:18:08;;;;;;;7.85;3.72;;;1.20;99.90;;;;;;5032406;28;20427;-55
2023/01/28 06:20:54;;;;;;;10.05;3.95;;;1.20;99.90;;;;;;5030277;28;20478;-52
2023/01/28 06:23:40;;;;;;;7.68;4.50;;;1.20;99.90;;;;;;5030965;28;20116;-54
2023/01/28 06:26:26;;;;;;;9.30;3.92;;;1.10;99.90;;;;;;5027643;28;20025;-52
2023/01/28 06:29:12;;;;;;;7.00;4.00;;;1.10;99.90;;;;;;5030344;28;20022;-53
2023/01/28 06:31:58;;;;;;;9.15;3.83;;;1.10;99.90;;;;;;5030883;28;20033;-53
2023/01/28 06:34:46;;;;;;;8.20;4.45;;;1.10;99.90;;;;;;5016519;28;20041;-53
2023/01/28 06:37:32;;;;;;;7.28;3.78;;;1.10;99.90;;;;;;5030765;28;20029;-52
2023/01/28 06:40:19;;;;;;;9.15;4.88;;;1.20;99.90;;;;;;5032092;28;20064;-54
2023/01/28 06:43:05;;;;;;;7.35;3.92;;;1.10;99.90;;;;;;5013614;28;20034;-56
2023/01/28 06:45:51;;;;;;;10.30;3.85;;;1.20;99.90;;;;;;5019142;28;20029;-52
2023/01/28 06:48:37;;;;;;;10.23;5.38;;;1.20;99.90;;;;;;5032393;28;20048;-55
2023/01/28 06:51:23;;;;;;;5.50;3.60;;;1.10;99.90;;;;;;5017713;28;20022;-50
2023/01/28 06:54:09;;;;;;;7.68;3.72;;;1.10;99.90;;;;;;5030936;28;20026;-53
2023/01/28 06:56:55;;;;;;;5.15;3.78;;;1.10;99.90;;;;;;5031227;28;20029;-57
2023/01/28 06:59:41;;;;;;;7.90;3.88;;;1.10;99.90;;;;;;5022116;28;20026;-54
2023/01/28 07:02:27;;;;;;;7.45;4.03;;;1.20;99.90;;;;;;5028867;28;20033;-54
2023/01/28 07:05:13;;;;;;;7.50;4.65;;;1.30;99.90;;;;;;5031668;28;20090;-51
2023/01/28 07:08:01;;;;;;;7.20;4.05;;;1.20;99.90;;;;;;5031015;28;20104;-53
2023/01/28 07:10:48;;;;;;;11.15;4.82;;;1.20;99.90;;;;;;5010770;28;20030;-50
2023/01/28 07:13:34;;;;;;;8.60;3.88;;;1.20;99.90;;;;;;5017909;28;20033;-51
2023/01/28 07:16:20;;;;;;;8.65;4.68;;;1.00;99.90;;;;;;5029835;28;20041;-55
2023/01/28 07:19:05;;;;;;;6.82;4.57;;;1.10;99.90;;;;;;5030185;28;20438;-54
2023/01/28 07:21:51;;;;;;;8.63;4.18;;;1.10;99.90;;;;;;5032746;28;20427;-53
2023/01/28 07:24:37;;;;;;;9.13;4.50;;;1.20;99.90;;;;;;5014147;28;20041;-52
2023/01/28 07:27:23;;;;;;;6.30;4.30;;;1.20;99.90;;;;;;5011586;28;20618;-51
2023/01/28 07:30:10;;;;;;;10.18;5.07;;;1.20;99.90;;;;;;5022295;28;20038;-51
2023/01/28 07:32:57;;;;;;;8.35;4.80;;;1.20;99.90;;;;;;5034163;28;20401;-55
2023/01/28 07:35:45;;;;;;;10.63;4.25;;;1.30;99.90;;;;;;5031726;28;20069;-54
2023/01/28 07:38:30;;;;;;;8.20;4.72;;;1.30;99.90;;;;;;5036117;28;20026;-49
2023/01/28 07:41:16;;;;;;;7.07;4.25;;;1.30;99.90;;;;;;5032342;28;20192;-53
2023/01/28 07:44:03;;;;;;;8.45;5.07;;;1.30;99.90;;;;;;5011499;28;20048;-53
2023/01/28 07:46:48;;;;;;;11.77;4.95;;;1.30;99.90;;;;;;5016136;28;20402;-51
2023/01/28 07:49:34;;;;;;;10.77;5.18;;;1.20;99.90;;;;;;5030842;28;20100;-53
2023/01/28 07:52:20;;;;;;;7.35;4.45;;;1.30;99.90;;;;;;5016538;28;20102;-53
2023/01/28 07:55:07;;;;;;;7.38;4.18;;;1.30;99.90;;;;;;5032506;28;20029;-53
2023/01/28 07:57:55;;;;;;;9.90;5.18;;;1.30;99.90;;;;;;5014924;28;20060;-53
2023/01/28 08:00:41;;;;;;;11.13;4.85;;;1.30;99.90;;;;;;5031014;28;20025;-55
2023/01/28 08:03:28;;;;;;;7.75;4.90;;;1.40;99.90;;;;;;5029425;28;20132;-56
2023/01/28 08:06:13;;;;;;;12.63;5.85;;;1.40;99.90;;;;;;5023244;28;20025;-55
2023/01/28 08:08:59;;;;;;;8.32;4.38;;;1.50;99.90;;;;;;5031117;28;20041;-55
2023/01/28 08:11:45;;;;;;;10.32;5.38;;;1.50;99.90;;;;;;5022025;28;20048;-54
2023/01/28 08:14:31;;;;;;;9.40;5.20;;;1.60;99.90;;;;;;5029691;28;20109;-54
2023/01/28 08:17:17;;;;;;;11.90;5.80;;;1.60;99.90;;;;;;5029899;28;20041;-52
2023/01/28 08:20:03;;;;;;;11.43;5.55;;;1.60;99.90;;;;;;5030923;28;20032;-53
2023/01/28 08:22:49;;;;;;;7.57;5.30;;;1.70;99.90;;;;;;5029473;28;20030;-57
2023/01/28 08:25:35;;;;;;;8.73;5.50;;;1.70;99.90;;;;;;5029025;28;20049;-53
2023/01/28 08:28:21;;;;;;;8.77;5.10;;;1.80;99.90;;;;;;5029330;28;20517;-54
2023/01/28 08:31:07;;;;;;;9.88;5.25;;;1.80;99.90;;;;;;5030543;28;20500;-53
2023/01/28 08:33:53;;;;;;;7.22;5.25;;;1.80;99.90;;;;;;5029714;28;20064;-53
2023/01/28 08:36:39;;;;;;;6.70;4.38;;;1.70;99.90;;;;;;5021889;28;20030;-55
2023/01/28 08:39:25;;;;;;;7.10;5.03;;;1.80;99.90;;;;;;5029065;28;20040;-54
2023/01/28 08:42:11;;;;;;;8.15;5.78;;;1.80;99.90;;;;;;5029764;28;20032;-56
2023/01/28 08:44:57;;;;;;;8.82;4.82;;;1.80;99.90;;;;;;4997124;28;20390;-55
2023/01/28 08:47:56;;;;;;;7.00;4.57;;;1.80;99.90;;;;;;5018967;28;20021;-58
2023/01/28 08:50:42;;;;;;;8.23;4.88;;;1.80;99.90;;;;;;5033631;28;20719;-56
2023/01/28 08:53:28;;;;;;;9.75;5.38;;;1.80;99.90;;;;;;5034239;28;20125;-54
2023/01/28 08:56:15;;;;;;;10.35;5.38;;;1.70;99.90;;;;;;5032593;28;20165;-57
2023/01/28 08:59:01;;;;;;;8.77;5.45;;;1.70;99.90;;;;;;5033814;28;20113;-56
2023/01/28 09:01:47;;;;;;;8.20;5.18;;;1.70;99.90;;;;;;5030642;28;20034;-54
2023/01/28 09:04:33;;;;;;;9.80;6.25;;;1.70;99.90;;;;;;5027304;28;20065;-58
2023/01/28 09:07:19;;;;;;;10.85;5.80;;;1.70;99.90;;;;;;5031946;28;20401;-58
2023/01/28 09:10:05;;;;;;;10.52;6.13;;;1.60;99.90;;;;;;5033157;28;20026;-57
2023/01/28 09:12:51;;;;;;;7.97;5.65;;;1.60;99.90;;;;;;5032024;28;20030;-55
2023/01/28 09:15:37;;;;;;;9.23;5.75;;;1.60;99.90;;;;;;5004641;28;20510;-61
2023/01/28 09:18:23;;;;;;;10.57;6.18;;;1.70;99.90;;;;;;5031967;28;20033;-60
2023/01/28 09:21:09;;;;;;;10.77;6.45;;;1.60;99.90;;;;;;5023085;28;20113;-59
2023/01/28 09:23:57;;;;;;;10.07;5.97;;;1.70;99.90;;;;;;5026274;28;20129;-55
2023/01/28 09:26:44;;;;;;;8.48;5.57;;;1.70;99.90;;;;;;5030437;28;20033;-58
2023/01/28 09:29:29;;;;;;;7.50;5.30;;;1.80;99.90;;;;;;5031562;28;20146;-54
2023/01/28 09:32:15;;;;;;;10.98;6.35;;;1.80;99.90;;;;;;5028982;28;20532;-61
2023/01/28 09:35:02;;;;;;;11.38;6.85;;;1.80;99.90;;;;;;5027633;28;20056;-56
2023/01/28 09:37:48;;;;;;;8.43;5.55;;;1.80;99.90;;;;;;5031849;28;20025;-55
2023/01/28 09:40:41;;;;;;;8.38;5.47;;;1.80;99.90;;;;;;5032195;28;20099;-55
2023/01/28 09:43:44;;;;;;;9.60;5.68;;;1.70;99.90;;;;;;5033168;28;20072;-53
2023/01/28 09:46:33;;;;;;;7.63;5.55;;;1.60;99.90;;;;;;5027635;28;20116;-55
2023/01/28 09:49:51;;;;;;;6.85;5.10;;;1.60;99.90;;;;;;5023280;28;20438;-59
2023/01/28 09:52:39;;;;;;;9.90;4.47;;;1.60;99.90;;;;;;4999659;28;20117;-55
2023/01/28 09:55:39;;;;;;;8.65;4.40;;;1.60;99.90;;;;;;5032097;28;20034;-56
2023/01/28 09:58:25;;;;;;;7.55;4.72;;;1.60;99.90;;;;;;5032149;28;20048;-53
2023/01/28 10:01:35;;;;;;;5.00;4.43;;;1.60;99.90;;;;;;5032031;28;20522;-56
2023/01/28 10:04:38;;;;;;;8.55;4.43;;;1.70;99.90;;;;;;5031471;28;20111;-55
2023/01/28 10:07:37;;;;;;;12.43;6.47;;;1.80;99.90;;;;;;5031902;28;20028;-52
2023/01/28 10:10:27;;;;;;;8.23;5.25;;;1.90;99.90;;;;;;5031539;28;20037;-53
2023/01/28 10:13:25;;;;;;;10.00;6.20;;;2.00;99.90;;;;;;5029777;28;20037;-55
2023/01/28 10:16:23;;;;;;;7.00;4.55;;;2.10;99.90;;;;;;5040786;28;20043;-55
2023/01/28 10:19:26;;;;;;;7.60;4.00;;;2.10;99.90;;;;;;5045709;28;20096;-52
2023/01/28 10:22:38;;;;;;;8.65;4.45;;;2.10;99.90;;;;;;5030746;28;20354;-58
2023/01/28 10:25:29;;;;;;;7.35;4.50;;;2.10;99.90;;;;;;5024854;28;20029;-57
2023/01/28 10:28:28;;;;;;;6.72;5.10;;;2.10;99.90;;;;;;5024838;28;20490;-54
2023/01/28 10:31:14;;;;;;;11.35;7.32;;;2.20;99.90;;;;;;5028665;28;20028;-54
2023/01/28 10:34:01;;;;;;;9.70;5.25;;;2.20;99.90;;;;;;5032687;28;20037;-59
2023/01/28 10:36:48;;;;;;;9.65;5.32;;;2.20;99.90;;;;;;5029428;28;20080;-54
2023/01/28 10:39:34;;;;;;;8.77;5.40;;;2.10;99.90;;;;;;5037667;28;20044;-55
2023/01/28 10:42:34;;;;;;;5.25;4.28;;;2.20;99.90;;;;;;5031073;28;20037;-49
2023/01/28 10:45:27;;;;;;;11.35;5.20;;;2.10;99.90;;;;;;5028521;28;20013;-52
2023/01/28 10:48:23;;;;;;;11.95;4.72;;;2.10;99.90;;;;;;5034250;28;20026;-56
2023/01/28 10:51:09;;;;;;;7.50;4.60;;;2.20;99.90;;;;;;5031480;28;20029;-55
2023/01/28 10:53:55;;;;;;;8.88;5.30;;;2.00;99.90;;;;;;5016556;28;20061;-60
2023/01/28 10:56:42;;;;;;;6.63;4.63;;;2.00;99.90;;;;;;5047009;28;20468;-52
2023/01/28 10:59:31;;;;;;;5.43;4.20;;;2.10;99.90;;;;;;5027418;28;20132;-53
2023/01/28 11:02:20;;;;;;;5.85;3.72;;;2.10;99.90;;;;;;5045685;28;20037;-53
2023/01/28 11:05:19;;;;;;;5.90;3.30;;;2.10;99.90;;;;;;5023087;28;20025;-56
2023/01/28 11:08:15;;;;;;;5.32;4.20;;;2.10;99.90;;;;;;5039734;28;20463;-55
2023/01/28 11:11:01;;;;;;;8.70;5.72;;;2.10;99.90;;;;;;5027573;28;20181;-50
2023/01/28 11:13:52;;;;;;;8.45;6.22;;;2.00;99.90;;;;;;5029485;28;20033;-51
2023/01/28 11:16:39;;;;;;;8.38;5.30;;;2.00;99.90;;;;;;5038408;28;20037;-52
2023/01/28 11:19:37;;;;;;;7.90;5.32;;;1.90;99.90;;;;;;5033301;28;20692;-51
2023/01/28 11:22:35;;;;;;;5.82;3.72;;;1.80;99.90;;;;;;5026857;28;20052;-54
2023/01/28 11:25:28;;;;;;;5.80;4.32;;;1.80;99.80;;;;;;5009336;28;20022;-53
2023/01/28 11:28:20;;;;;;;5.43;4.32;;;1.90;99.60;;;;;;5028228;28;20684;-53
2023/01/28 11:31:08;;;;;;;7.68;5.25;;;1.90;99.40;;;;;;5026334;28;20560;-56
2023/01/28 11:34:00;;;;;;;6.38;5.38;;;2.00;99.90;;;;;;5029067;28;20041;-56
2023/01/28 11:37:15;;;;;;;9.55;6.18;;;1.90;99.90;;;;;;5038131;28;20041;-57
2023/01/28 11:40:19;;;;;;;8.88;6.30;;;1.90;99.90;;;;;;5029644;28;20043;-55
2023/01/28 11:43:07;;;;;;;10.20;7.10;;;1.90;99.90;;;;;;5031861;28;20041;-56
2023/01/28 11:46:12;;;;;;;10.68;7.40;;;1.90;99.90;;;;;;5034079;28;20046;-56
2023/01/28 11:49:39;;;;;;;9.57;7.50;;;1.90;99.90;;;;;;5047661;28;20017;-51
2023/01/28 11:52:40;;;;;;;10.00;6.90;;;2.00;99.90;;;;;;5008692;28;20030;-55
2023/01/28 11:55:39;;;;;;;9.77;6.13;;;2.10;99.90;;;;;;5042092;28;20095;-56
2023/01/28 11:58:37;;;;;;;8.48;6.53;;;2.00;99.90;;;;;;5028751;28;20021;-57
2023/01/28 12:01:38;;;;;;;10.13;6.72;;;2.10;99.90;;;;;;5032687;28;20111;-55
2023/01/28 12:05:19;;;;;;;8.80;5.95;;;2.20;99.90;;;;;;5034294;28;20033;-58
2023/01/28 12:08:27;;;;;;;10.25;5.85;;;1.90;99.90;;;;;;4976637;28;20034;-51
2023/01/28 12:11:16;;;;;;;8.48;6.45;;;1.80;99.90;;;;;;5026858;28;20037;-53
2023/01/28 12:14:23;;;;;;;7.72;5.90;;;1.90;99.90;;;;;;5033656;28;20105;-54
2023/01/28 12:17:17;;;;;;;8.93;6.03;;;1.80;99.90;;;;;;5026497;28;20535;-57
2023/01/28 12:20:14;;;;;;;7.63;4.57;;;1.90;99.90;;;;;;5030386;28;20048;-54
2023/01/28 12:23:13;;;;;;;5.72;4.72;;;2.10;99.20;;;;;;5034733;28;20275;-53
2023/01/28 12:26:22;;;;;;;10.77;5.10;;;1.90;98.50;;;;;;5031880;28;20024;-57
2023/01/28 12:29:25;;;;;;;6.30;4.80;;;2.00;98.10;;;;;;5036111;28;20145;-52
2023/01/28 12:32:21;;;;;;;6.22;4.85;;;2.00;97.80;;;;;;5046379;28;20040;-55
2023/01/28 12:35:20;;;;;;;5.75;5.10;;;2.10;97.70;;;;;;5052628;28;20025;-58
2023/01/28 12:38:18;;;;;;;9.40;6.78;;;2.10;97.70;;;;;;5043479;28;20025;-55
2023/01/28 12:41:17;;;;;;;9.40;6.60;;;2.10;98.10;;;;;;5043526;28;20092;-54
2023/01/28 12:44:09;;;;;;;12.30;6.78;;;2.00;98.30;;;;;;5042821;28;20033;-54
2023/01/28 12:47:04;;;;;;;7.63;5.72;;;2.00;98.50;;;;;;5035328;28;20026;-56
2023/01/28 12:49:58;;;;;;;9.90;6.60;;;2.10;98.50;;;;;;5045609;28;20017;-51
2023/01/28 12:52:52;;;;;;;8.82;6.35;;;2.20;98.60;;;;;;5038328;28;20819;-55
2023/01/28 12:55:48;;;;;;;9.48;6.13;;;2.10;98.60;;;;;;5033675;28;20153;-54
2023/01/28 12:58:52;;;;;;;10.18;7.03;;;2.20;98.60;;;;;;5033228;28;20538;-56
2023/01/28 13:01:54;;;;;;;10.43;6.75;;;2.20;98.40;;;;;;5023329;28;20017;-56
2023/01/28 13:05:22;;;;;;;10.18;7.13;;;2.10;98.40;;;;;;5040393;28;20049;-51
2023/01/28 13:08:22;;;;;;;9.20;6.95;;;2.10;98.60;;;;;;4934412;29;20020;-53
2023/01/28 13:11:15;;;;;;;9.57;7.95;;;2.10;99.00;;;;;;5017806;28;20069;-54
2023/01/28 13:14:02;;;;;;;9.77;7.30;;;1.90;99.10;;;;;;5026280;28;20025;-53
2023/01/28 13:16:48;;;;;;;17.63;7.53;;;1.90;99.20;;;;;;5039529;28;20093;-52
2023/01/28 13:19:41;;;;;;;12.20;7.57;;;1.90;99.20;;;;;;5032369;28;20410;-52
2023/01/28 13:22:33;;;;;;;14.23;9.55;;;1.80;99.60;;;;;;5032156;28;20022;-51
2023/01/28 13:25:25;;;;;;;12.55;8.68;;;1.80;99.50;;;;;;5045971;28;20021;-50
2023/01/28 13:28:27;;;;;;;8.80;6.90;;;1.70;99.40;;;;;;5039873;28;20040;-55
2023/01/28 13:31:18;;;;;;;11.15;7.00;;;1.70;99.30;;;;;;5036231;28;20132;-52
2023/01/28 13:34:06;;;;;;;9.73;7.95;;;1.70;99.50;;;;;;5030228;28;20645;-54
2023/01/28 13:36:53;;;;;;;11.32;7.60;;;1.70;99.00;;;;;;5049192;28;20056;-53
2023/01/28 13:39:47;;;;;;;12.77;7.65;;;1.80;99.10;;;;;;5034688;28;20048;-54
2023/01/28 13:42:34;;;;;;;8.70;6.93;;;1.80;98.80;;;;;;5042359;28;20405;-53
2023/01/28 13:45:22;;;;;;;10.85;7.38;;;1.90;98.80;;;;;;5039321;28;20029;-54
2023/01/28 13:48:23;;;;;;;8.32;6.63;;;1.90;98.90;;;;;;5039984;28;20026;-52
2023/01/28 13:51:21;;;;;;;7.95;6.50;;;1.90;98.80;;;;;;5058754;28;20028;-56
2023/01/28 13:54:15;;;;;;;7.53;4.88;;;1.90;98.80;;;;;;5033644;28;20060;-52
2023/01/28 13:57:15;;;;;;;7.15;4.10;;;1.80;98.90;;;;;;5056355;28;20124;-52
2023/01/28 14:00:38;;;;;;;5.57;4.35;;;1.70;98.60;;;;;;5020996;28;20499;-54
2023/01/28 14:03:54;;;;;;;8.63;4.32;;;1.80;98.60;;;;;;5035975;28;20029;-50
2023/01/28 14:06:40;;;;;;;;;;;1.80;98.80;;;;;;5043650;28;20028;-48
2023/01/28 14:09:38;;;;;;;4.75;3.30;;;1.80;98.90;;;;;;5051332;28;19908;-51
2023/01/28 14:12:49;;;;;;;6.93;3.88;;;1.80;99.00;;;;;;5043001;28;20580;-56
2023/01/28 14:15:59;;;;;;;7.70;4.35;;;1.90;98.90;;;;;;5032981;28;20033;-53
2023/01/28 14:18:47;;;;;;;12.80;5.93;;;1.90;99.00;;;;;;5019211;28;20060;-52
2023/01/28 14:21:34;;;;;;;6.75;4.18;;;1.90;98.70;;;;;;5032353;28;20017;-53
2023/01/28 14:24:21;;;;;;;4.93;3.20;;;1.90;98.70;;;;;;5031543;28;20068;-55
2023/01/28 14:27:19;;;;;;;5.10;3.30;;;2.00;98.80;;;;;;5045080;28;20053;-51
2023/01/28 14:30:43;;;;;;;5.38;3.45;;;2.10;98.50;;;;;;5049783;28;20032;-55
2023/01/28 14:33:31;;;;;;;4.28;2.60;;;2.20;98.40;;;;;;4995432;28;20084;-53
2023/01/28 14:36:17;;;;;;;4.03;2.92;;;2.20;98.30;;;;;;5037816;28;20040;-53
2023/01/28 14:39:03;;;;;;;4.80;2.88;;;2.20;98.20;;;;;;5045095;28;20049;-51
2023/01/28 14:41:51;;;;;;;7.15;2.90;;;2.30;97.90;;;;;;5031599;28;20067;-51
2023/01/28 14:44:40;;;;;;;4.55;2.80;;;2.20;97.70;;;;;;5021615;28;20100;-54
2023/01/28 14:47:47;;;;;;;5.00;2.60;;;2.10;97.80;;;;;;5040319;28;20025;-56
2023/01/28 14:50:52;;;;;;;3.03;2.50;;;2.10;98.20;;;;;;5019972;28;20587;-53
2023/01/28 14:53:47;;;;;;;20.73;9.48;;;2.10;97.90;;;;;;5046961;28;20053;-53
2023/01/28 14:57:11;;;;;;;4.20;2.30;;;2.10;97.80;;;;;;5028359;28;20074;-52
2023/01/28 14:59:58;;;;;;;8.48;2.80;;;2.20;97.60;;;;;;5027618;28;20538;-55
2023/01/28 15:02:44;;;;;;;3.78;2.33;;;2.10;97.50;;;;;;5031477;28;20033;-55
2023/01/28 15:05:30;;;;;;;5.10;2.60;;;1.80;97.60;;;;;;5022796;28;20053;-55
2023/01/28 15:08:22;;;;;;;3.47;2.58;;;1.80;98.10;;;;;;5040413;28;20029;-53
2023/01/28 15:11:14;;;;;;;3.13;2.60;;;1.90;98.20;;;;;;5030311;28;20573;-56
2023/01/28 15:14:00;;;;;;;3.92;2.50;;;1.70;98.30;;;;;;5028290;28;20497;-55
2023/01/28 15:16:48;;;;;;;3.38;2.17;;;1.70;98.10;;;;;;5026330;28;20456;-51
2023/01/28 15:19:36;;;;;;;4.72;2.60;;;1.80;98.00;;;;;;5031512;28;20101;-54
2023/01/28 15:22:26;;;;;;;3.50;2.63;;;1.80;97.70;;;;;;5028654;28;20588;-51
2023/01/28 15:25:19;;;;;;;8.95;4.40;;;1.80;98.20;;;;;;5025973;28;20032;-53
2023/01/28 15:28:05;;;;;;;4.72;3.25;;;1.80;98.40;;;;;;5033910;28;20033;-54